sensor_id;sensor_type;location;lat;lon;timestamp;temperature;humidity
22337;DHT22;14992;50.844;4.418;2023-07-13T00:01:33;18.60;99.90
22337;DHT22;14992;50.844;4.418;2023-07-13T00:04:02;18.60;99.90
22337;DHT22;14992;50.844;4.418;2023-07-13T00:06:31;18.60;99.90
22337;DHT22;14992;50.844;4.418;2023-07-13T00:09:00;18.60;99.90
22337;DHT22;14992;50.844;4.418;2023-07-13T00:11:29;18.50;99.90
22337;DHT22;14992;50.844;4.418;2023-07-13T00:14:00;18.60;99.90
22337;DHT22;14992;50.844;4.418;2023-07-13T00:16:29;18.60;99.90
22337;DHT22;14992;50.844;4.418;2023-07-13T00:18:58;18.50;99.90
22337;DHT22;14992;50.844;4.418;2023-07-13T00:21:29;18.40;99.90
22337;DHT22;14992;50.844;4.418;2023-07-13T00:23:58;18.30;99.90
22337;DHT22;14992;50.844;4.418;2023-07-13T00:26:28;18.30;99.90
22337;DHT22;14992;50.844;4.418;2023-07-13T00:29:01;18.30;99.90
22337;DHT22;14992;50.844;4.418;2023-07-13T00:31:31;18.30;99.90
22337;DHT22;14992;50.844;4.418;2023-07-13T00:34:00;18.30;99.90
22337;DHT22;14992;50.844;4.418;2023-07-13T00:36:30;18.20;99.90
22337;DHT22;14992;50.844;4.418;2023-07-13T00:38:59;18.20;99.90
22337;DHT22;14992;50.844;4.418;2023-07-13T00:41:28;18.10;99.90
22337;DHT22;14992;50.844;4.418;2023-07-13T00:43:57;18.20;99.90
22337;DHT22;14992;50.844;4.418;2023-07-13T00:46:30;18.10;99.90
22337;DHT22;14992;50.844;4.418;2023-07-13T00:49:04;18.00;99.90
22337;DHT22;14992;50.844;4.418;2023-07-13T00:51:37;18.00;99.90
22337;DHT22;14992;50.844;4.418;2023-07-13T00:54:17;18.00;99.90
22337;DHT22;14992;50.844;4.418;2023-07-13T00:56:49;18.10;99.90
22337;DHT22;14992;50.844;4.418;2023-07-13T00:59:20;18.00;99.90
22337;DHT22;14992;50.844;4.418;2023-07-13T01:01:51;18.00;99.90
22337;DHT22;14992;50.844;4.418;2023-07-13T01:04:23;17.90;99.90
22337;DHT22;14992;50.844;4.418;2023-07-13T01:06:52;17.90;99.90
22337;DHT22;14992;50.844;4.418;2023-07-13T01:09:21;18.00;99.90
22337;DHT22;14992;50.844;4.418;2023-07-13T01:11:50;18.00;99.90
22337;DHT22;14992;50.844;4.418;2023-07-13T01:14:19;18.00;99.90
22337;DHT22;14992;50.844;4.418;2023-07-13T01:16:48;18.00;99.90
22337;DHT22;14992;50.844;4.418;2023-07-13T01:19:29;17.90;99.90
22337;DHT22;14992;50.844;4.418;2023-07-13T01:22:07;17.90;99.90
22337;DHT22;14992;50.844;4.418;2023-07-13T01:24:42;17.90;99.90
22337;DHT22;14992;50.844;4.418;2023-07-13T01:27:14;17.90;99.90
22337;DHT22;14992;50.844;4.418;2023-07-13T01:29:45;17.90;99.90
22337;DHT22;14992;50.844;4.418;2023-07-13T01:32:17;17.90;99.90
22337;DHT22;14992;50.844;4.418;2023-07-13T01:34:55;18.00;99.90
22337;DHT22;14992;50.844;4.418;2023-07-13T01:37:26;17.90;99.90
22337;DHT22;14992;50.844;4.418;2023-07-13T01:39:55;17.90;99.90
22337;DHT22;14992;50.844;4.418;2023-07-13T01:42:24;17.90;99.90
22337;DHT22;14992;50.844;4.418;2023-07-13T01:44:53;17.90;99.90
22337;DHT22;14992;50.844;4.418;2023-07-13T01:47:22;17.90;99.90
22337;DHT22;14992;50.844;4.418;2023-07-13T01:49:51;17.90;99.90
22337;DHT22;14992;50.844;4.418;2023-07-13T01:52:20;17.90;99.90
22337;DHT22;14992;50.844;4.418;2023-07-13T01:54:50;17.90;99.90
22337;DHT22;14992;50.844;4.418;2023-07-13T01:57:19;17.90;99.90
22337;DHT22;14992;50.844;4.418;2023-07-13T01:59:48;17.80;99.90
22337;DHT22;14992;50.844;4.418;2023-07-13T02:02:17;17.80;99.90
22337;DHT22;14992;50.844;4.418;2023-07-13T02:04:47;17.70;99.90
22337;DHT22;14992;50.844;4.418;2023-07-13T02:07:16;17.60;99.90
22337;DHT22;14992;50.844;4.418;2023-07-13T02:09:45;17.60;99.90
22337;DHT22;14992;50.844;4.418;2023-07-13T02:12:15;17.60;99.90
22337;DHT22;14992;50.844;4.418;2023-07-13T02:14:44;17.60;99.90
22337;DHT22;14992;50.844;4.418;2023-07-13T02:17:13;17.60;99.90
22337;DHT22;14992;50.844;4.418;2023-07-13T02:19:42;17.60;99.90
22337;DHT22;14992;50.844;4.418;2023-07-13T02:22:11;17.50;99.90
22337;DHT22;14992;50.844;4.418;2023-07-13T02:24:40;17.50;99.90
22337;DHT22;14992;50.844;4.418;2023-07-13T02:27:09;17.50;99.90
22337;DHT22;14992;50.844;4.418;2023-07-13T02:29:40;17.50;99.90
22337;DHT22;14992;50.844;4.418;2023-07-13T02:32:09;17.50;99.90
22337;DHT22;14992;50.844;4.418;2023-07-13T02:34:38;17.50;99.90
22337;DHT22;14992;50.844;4.418;2023-07-13T02:37:07;17.50;99.90
22337;DHT22;14992;50.844;4.418;2023-07-13T02:39:36;17.50;99.90
22337;DHT22;14992;50.844;4.418;2023-07-13T02:42:06;17.50;99.90
22337;DHT22;14992;50.844;4.418;2023-07-13T02:44:35;17.50;99.90
22337;DHT22;14992;50.844;4.418;2023-07-13T02:47:06;17.50;99.90
22337;DHT22;14992;50.844;4.418;2023-07-13T02:49:35;17.50;99.90
22337;DHT22;14992;50.844;4.418;2023-07-13T02:52:05;17.50;99.90
22337;DHT22;14992;50.844;4.418;2023-07-13T02:54:34;17.40;99.90
22337;DHT22;14992;50.844;4.418;2023-07-13T02:57:03;17.40;99.90
22337;DHT22;14992;50.844;4.418;2023-07-13T02:59:32;17.30;99.90
22337;DHT22;14992;50.844;4.418;2023-07-13T03:02:01;17.20;99.90
22337;DHT22;14992;50.844;4.418;2023-07-13T03:04:32;17.20;99.90
22337;DHT22;14992;50.844;4.418;2023-07-13T03:07:01;17.10;99.90
22337;DHT22;14992;50.844;4.418;2023-07-13T03:09:36;17.10;99.90
22337;DHT22;14992;50.844;4.418;2023-07-13T03:12:08;17.20;99.90
22337;DHT22;14992;50.844;4.418;2023-07-13T03:14:37;17.20;99.90
22337;DHT22;14992;50.844;4.418;2023-07-13T03:17:07;17.20;99.90
22337;DHT22;14992;50.844;4.418;2023-07-13T03:19:40;17.20;99.90
22337;DHT22;14992;50.844;4.418;2023-07-13T03:22:09;17.20;99.90
22337;DHT22;14992;50.844;4.418;2023-07-13T03:24:40;17.10;99.90
22337;DHT22;14992;50.844;4.418;2023-07-13T03:27:09;17.10;99.90
22337;DHT22;14992;50.844;4.418;2023-07-13T03:29:41;17.10;99.90
22337;DHT22;14992;50.844;4.418;2023-07-13T03:32:10;17.10;99.90
22337;DHT22;14992;50.844;4.418;2023-07-13T03:34:40;17.00;99.90
22337;DHT22;14992;50.844;4.418;2023-07-13T03:37:09;17.00;99.90
22337;DHT22;14992;50.844;4.418;2023-07-13T03:39:38;17.00;99.90
22337;DHT22;14992;50.844;4.418;2023-07-13T03:42:07;17.00;99.90
22337;DHT22;14992;50.844;4.418;2023-07-13T03:44:36;17.00;99.90
22337;DHT22;14992;50.844;4.418;2023-07-13T03:47:05;17.00;99.90
22337;DHT22;14992;50.844;4.418;2023-07-13T03:49:36;17.00;99.90
22337;DHT22;14992;50.844;4.418;2023-07-13T03:52:07;17.10;99.90
22337;DHT22;14992;50.844;4.418;2023-07-13T03:54:35;17.10;99.90
22337;DHT22;14992;50.844;4.418;2023-07-13T03:57:06;17.20;99.90
22337;DHT22;14992;50.844;4.418;2023-07-13T03:59:36;17.30;99.90
22337;DHT22;14992;50.844;4.418;2023-07-13T04:02:05;17.40;99.90
22337;DHT22;14992;50.844;4.418;2023-07-13T04:04:34;17.30;99.90
22337;DHT22;14992;50.844;4.418;2023-07-13T04:07:04;17.30;99.90
22337;DHT22;14992;50.844;4.418;2023-07-13T04:09:34;17.40;99.90
22337;DHT22;14992;50.844;4.418;2023-07-13T04:12:04;17.50;99.90
22337;DHT22;14992;50.844;4.418;2023-07-13T04:14:33;17.50;99.90
22337;DHT22;14992;50.844;4.418;2023-07-13T04:17:02;17.50;99.90
22337;DHT22;14992;50.844;4.418;2023-07-13T04:19:31;17.50;99.90
22337;DHT22;14992;50.844;4.418;2023-07-13T04:22:00;17.40;99.90
22337;DHT22;14992;50.844;4.418;2023-07-13T04:24:28;17.30;99.90
22337;DHT22;14992;50.844;4.418;2023-07-13T04:26:59;17.40;99.90
22337;DHT22;14992;50.844;4.418;2023-07-13T04:29:29;17.50;99.90
22337;DHT22;14992;50.844;4.418;2023-07-13T04:31:58;17.50;99.90
22337;DHT22;14992;50.844;4.418;2023-07-13T04:34:27;17.60;99.90
22337;DHT22;14992;50.844;4.418;2023-07-13T04:36:56;17.60;99.90
22337;DHT22;14992;50.844;4.418;2023-07-13T04:39:25;17.80;99.90
22337;DHT22;14992;50.844;4.418;2023-07-13T04:41:54;17.80;99.90
22337;DHT22;14992;50.844;4.418;2023-07-13T04:44:24;17.80;99.90
22337;DHT22;14992;50.844;4.418;2023-07-13T04:46:53;17.80;99.90
22337;DHT22;14992;50.844;4.418;2023-07-13T04:49:22;17.90;99.90
22337;DHT22;14992;50.844;4.418;2023-07-13T04:51:51;17.80;99.90
22337;DHT22;14992;50.844;4.418;2023-07-13T04:54:20;17.90;99.90
22337;DHT22;14992;50.844;4.418;2023-07-13T04:56:49;18.10;99.90
22337;DHT22;14992;50.844;4.418;2023-07-13T04:59:18;18.10;99.90
22337;DHT22;14992;50.844;4.418;2023-07-13T05:01:48;18.10;99.90
22337;DHT22;14992;50.844;4.418;2023-07-13T05:04:17;18.10;99.90
22337;DHT22;14992;50.844;4.418;2023-07-13T05:06:46;18.30;99.90
22337;DHT22;14992;50.844;4.418;2023-07-13T05:09:15;18.30;99.90
22337;DHT22;14992;50.844;4.418;2023-07-13T05:11:44;18.20;99.90
22337;DHT22;14992;50.844;4.418;2023-07-13T05:14:13;18.30;99.90
22337;DHT22;14992;50.844;4.418;2023-07-13T05:16:44;18.20;99.90
22337;DHT22;14992;50.844;4.418;2023-07-13T05:19:14;18.00;99.90
22337;DHT22;14992;50.844;4.418;2023-07-13T05:21:43;18.00;99.90
22337;DHT22;14992;50.844;4.418;2023-07-13T05:24:12;18.10;99.90
22337;DHT22;14992;50.844;4.418;2023-07-13T05:26:52;18.10;99.90
22337;DHT22;14992;50.844;4.418;2023-07-13T05:29:22;18.20;99.90
22337;DHT22;14992;50.844;4.418;2023-07-13T05:31:51;18.20;99.90
22337;DHT22;14992;50.844;4.418;2023-07-13T05:34:21;18.30;99.90
22337;DHT22;14992;50.844;4.418;2023-07-13T05:36:51;18.30;99.90
22337;DHT22;14992;50.844;4.418;2023-07-13T05:39:20;18.30;99.90
22337;DHT22;14992;50.844;4.418;2023-07-13T05:41:49;18.40;99.90
22337;DHT22;14992;50.844;4.418;2023-07-13T05:44:18;18.40;99.90
22337;DHT22;14992;50.844;4.418;2023-07-13T05:46:47;18.50;99.90
22337;DHT22;14992;50.844;4.418;2023-07-13T05:49:16;18.50;99.90
22337;DHT22;14992;50.844;4.418;2023-07-13T05:51:46;18.40;99.90
22337;DHT22;14992;50.844;4.418;2023-07-13T05:54:15;18.50;99.90
22337;DHT22;14992;50.844;4.418;2023-07-13T05:56:44;18.50;99.90
22337;DHT22;14992;50.844;4.418;2023-07-13T05:59:13;18.40;99.90
22337;DHT22;14992;50.844;4.418;2023-07-13T06:01:42;18.40;99.90
22337;DHT22;14992;50.844;4.418;2023-07-13T06:04:12;18.50;99.90
22337;DHT22;14992;50.844;4.418;2023-07-13T06:06:41;18.40;99.90
22337;DHT22;14992;50.844;4.418;2023-07-13T06:09:11;18.50;99.90
22337;DHT22;14992;50.844;4.418;2023-07-13T06:11:40;18.60;99.90
22337;DHT22;14992;50.844;4.418;2023-07-13T06:14:09;18.60;99.90
22337;DHT22;14992;50.844;4.418;2023-07-13T06:16:39;18.70;99.90
22337;DHT22;14992;50.844;4.418;2023-07-13T06:19:08;18.70;99.90
22337;DHT22;14992;50.844;4.418;2023-07-13T06:21:37;18.80;99.90
22337;DHT22;14992;50.844;4.418;2023-07-13T06:24:06;18.80;99.90
22337;DHT22;14992;50.844;4.418;2023-07-13T06:26:36;18.90;99.90
22337;DHT22;14992;50.844;4.418;2023-07-13T06:29:05;19.00;99.90
22337;DHT22;14992;50.844;4.418;2023-07-13T06:31:34;18.90;99.90
22337;DHT22;14992;50.844;4.418;2023-07-13T06:34:03;18.90;99.90
22337;DHT22;14992;50.844;4.418;2023-07-13T06:36:32;18.90;99.90
22337;DHT22;14992;50.844;4.418;2023-07-13T06:39:00;18.90;99.90
22337;DHT22;14992;50.844;4.418;2023-07-13T06:41:29;18.90;99.90
22337;DHT22;14992;50.844;4.418;2023-07-13T06:44:00;19.00;99.90
22337;DHT22;14992;50.844;4.418;2023-07-13T06:46:29;19.20;99.90
22337;DHT22;14992;50.844;4.418;2023-07-13T06:48:58;19.40;99.90
22337;DHT22;14992;50.844;4.418;2023-07-13T06:51:27;19.50;99.90
22337;DHT22;14992;50.844;4.418;2023-07-13T06:53:56;19.50;99.90
22337;DHT22;14992;50.844;4.418;2023-07-13T06:56:25;19.70;99.90
22337;DHT22;14992;50.844;4.418;2023-07-13T06:58:54;19.80;99.90
22337;DHT22;14992;50.844;4.418;2023-07-13T07:01:25;19.90;99.90
22337;DHT22;14992;50.844;4.418;2023-07-13T07:03:54;19.90;99.90
22337;DHT22;14992;50.844;4.418;2023-07-13T07:06:24;20.00;99.90
22337;DHT22;14992;50.844;4.418;2023-07-13T07:08:53;19.90;99.90
22337;DHT22;14992;50.844;4.418;2023-07-13T07:11:24;19.90;99.90
22337;DHT22;14992;50.844;4.418;2023-07-13T07:13:53;20.00;99.90
22337;DHT22;14992;50.844;4.418;2023-07-13T07:16:23;20.00;99.90
22337;DHT22;14992;50.844;4.418;2023-07-13T07:18:54;20.10;99.90
22337;DHT22;14992;50.844;4.418;2023-07-13T07:21:23;20.20;99.90
22337;DHT22;14992;50.844;4.418;2023-07-13T07:23:53;20.30;99.90
22337;DHT22;14992;50.844;4.418;2023-07-13T07:26:22;20.40;99.90
22337;DHT22;14992;50.844;4.418;2023-07-13T07:28:59;20.40;99.90
22337;DHT22;14992;50.844;4.418;2023-07-13T07:31:30;20.30;99.90
22337;DHT22;14992;50.844;4.418;2023-07-13T07:34:03;20.40;99.90
22337;DHT22;14992;50.844;4.418;2023-07-13T07:36:32;20.30;99.90
22337;DHT22;14992;50.844;4.418;2023-07-13T07:39:04;20.40;99.90
22337;DHT22;14992;50.844;4.418;2023-07-13T07:41:34;20.20;99.90
22337;DHT22;14992;50.844;4.418;2023-07-13T07:44:05;20.20;99.90
22337;DHT22;14992;50.844;4.418;2023-07-13T07:46:39;20.10;99.90
22337;DHT22;14992;50.844;4.418;2023-07-13T07:49:10;20.00;99.90
22337;DHT22;14992;50.844;4.418;2023-07-13T07:51:39;20.10;99.90
22337;DHT22;14992;50.844;4.418;2023-07-13T07:54:08;20.00;99.90
22337;DHT22;14992;50.844;4.418;2023-07-13T07:56:43;20.00;99.90
22337;DHT22;14992;50.844;4.418;2023-07-13T07:59:32;20.10;99.90
22337;DHT22;14992;50.844;4.418;2023-07-13T08:02:04;20.30;99.90
22337;DHT22;14992;50.844;4.418;2023-07-13T08:04:55;20.30;99.90
22337;DHT22;14992;50.844;4.418;2023-07-13T08:07:27;20.20;99.90
22337;DHT22;14992;50.844;4.418;2023-07-13T08:09:56;20.20;99.90
22337;DHT22;14992;50.844;4.418;2023-07-13T08:12:25;20.40;99.90
22337;DHT22;14992;50.844;4.418;2023-07-13T08:14:57;20.60;99.90
22337;DHT22;14992;50.844;4.418;2023-07-13T08:17:39;20.80;99.90
22337;DHT22;14992;50.844;4.418;2023-07-13T08:20:10;20.90;99.90
22337;DHT22;14992;50.844;4.418;2023-07-13T08:22:39;21.20;99.90
22337;DHT22;14992;50.844;4.418;2023-07-13T08:25:08;21.30;99.90
22337;DHT22;14992;50.844;4.418;2023-07-13T08:27:37;21.40;99.90
22337;DHT22;14992;50.844;4.418;2023-07-13T08:30:07;21.50;99.90
22337;DHT22;14992;50.844;4.418;2023-07-13T08:32:36;21.50;99.90
22337;DHT22;14992;50.844;4.418;2023-07-13T08:35:06;21.80;99.90
22337;DHT22;14992;50.844;4.418;2023-07-13T08:37:37;21.80;99.90
22337;DHT22;14992;50.844;4.418;2023-07-13T08:40:08;21.80;99.90
22337;DHT22;14992;50.844;4.418;2023-07-13T08:42:43;21.90;99.90
22337;DHT22;14992;50.844;4.418;2023-07-13T08:45:18;21.70;99.90
22337;DHT22;14992;50.844;4.418;2023-07-13T08:47:51;21.70;99.90
22337;DHT22;14992;50.844;4.418;2023-07-13T08:50:25;21.50;99.90
22337;DHT22;14992;50.844;4.418;2023-07-13T08:52:58;21.40;99.90
22337;DHT22;14992;50.844;4.418;2023-07-13T08:55:31;21.50;99.90
22337;DHT22;14992;50.844;4.418;2023-07-13T08:58:04;21.50;99.90
22337;DHT22;14992;50.844;4.418;2023-07-13T09:00:39;21.60;99.90
22337;DHT22;14992;50.844;4.418;2023-07-13T09:03:19;21.60;99.90
22337;DHT22;14992;50.844;4.418;2023-07-13T09:05:52;21.60;99.90
22337;DHT22;14992;50.844;4.418;2023-07-13T09:08:42;21.50;99.90
22337;DHT22;14992;50.844;4.418;2023-07-13T09:11:27;21.70;99.90
22337;DHT22;14992;50.844;4.418;2023-07-13T09:14:06;21.80;99.90
22337;DHT22;14992;50.844;4.418;2023-07-13T09:16:39;21.80;99.90
22337;DHT22;14992;50.844;4.418;2023-07-13T09:19:16;21.90;99.90
22337;DHT22;14992;50.844;4.418;2023-07-13T09:21:52;21.90;99.90
22337;DHT22;14992;50.844;4.418;2023-07-13T09:24:28;21.80;99.90
22337;DHT22;14992;50.844;4.418;2023-07-13T09:26:58;21.80;99.90
22337;DHT22;14992;50.844;4.418;2023-07-13T09:29:30;21.80;99.90
22337;DHT22;14992;50.844;4.418;2023-07-13T09:32:06;22.00;99.90
22337;DHT22;14992;50.844;4.418;2023-07-13T09:34:36;22.30;99.90
22337;DHT22;14992;50.844;4.418;2023-07-13T09:37:05;22.40;99.90
22337;DHT22;14992;50.844;4.418;2023-07-13T09:39:37;22.40;99.90
22337;DHT22;14992;50.844;4.418;2023-07-13T09:42:14;22.50;99.90
22337;DHT22;14992;50.844;4.418;2023-07-13T09:44:52;22.60;99.90
22337;DHT22;14992;50.844;4.418;2023-07-13T09:47:23;22.90;99.90
22337;DHT22;14992;50.844;4.418;2023-07-13T09:49:56;23.00;99.90
22337;DHT22;14992;50.844;4.418;2023-07-13T09:52:40;23.10;99.90
22337;DHT22;14992;50.844;4.418;2023-07-13T09:55:25;23.00;99.90
22337;DHT22;14992;50.844;4.418;2023-07-13T09:57:54;23.00;99.90
22337;DHT22;14992;50.844;4.418;2023-07-13T10:00:26;22.80;99.90
22337;DHT22;14992;50.844;4.418;2023-07-13T10:03:03;22.80;99.90
22337;DHT22;14992;50.844;4.418;2023-07-13T10:05:41;23.00;99.90
22337;DHT22;14992;50.844;4.418;2023-07-13T10:08:19;22.80;99.90
22337;DHT22;14992;50.844;4.418;2023-07-13T10:10:58;22.80;99.90
22337;DHT22;14992;50.844;4.418;2023-07-13T10:13:34;22.90;99.90
22337;DHT22;14992;50.844;4.418;2023-07-13T10:16:05;23.00;99.90
22337;DHT22;14992;50.844;4.418;2023-07-13T10:18:39;23.00;99.90
22337;DHT22;14992;50.844;4.418;2023-07-13T10:21:14;23.00;99.90
22337;DHT22;14992;50.844;4.418;2023-07-13T10:23:50;23.20;99.90
22337;DHT22;14992;50.844;4.418;2023-07-13T10:26:25;23.30;99.90
22337;DHT22;14992;50.844;4.418;2023-07-13T10:28:57;23.00;99.90
22337;DHT22;14992;50.844;4.418;2023-07-13T10:31:27;22.90;99.90
22337;DHT22;14992;50.844;4.418;2023-07-13T10:33:57;22.80;99.90
22337;DHT22;14992;50.844;4.418;2023-07-13T10:36:31;23.10;99.90
22337;DHT22;14992;50.844;4.418;2023-07-13T10:39:03;23.20;99.90
22337;DHT22;14992;50.844;4.418;2023-07-13T10:41:40;23.50;99.90
22337;DHT22;14992;50.844;4.418;2023-07-13T10:44:18;23.40;99.90
22337;DHT22;14992;50.844;4.418;2023-07-13T10:46:48;23.50;99.90
22337;DHT22;14992;50.844;4.418;2023-07-13T10:49:20;23.40;99.90
22337;DHT22;14992;50.844;4.418;2023-07-13T10:51:50;23.30;99.90
22337;DHT22;14992;50.844;4.418;2023-07-13T10:54:26;23.20;99.90
22337;DHT22;14992;50.844;4.418;2023-07-13T10:57:15;23.20;99.90
22337;DHT22;14992;50.844;4.418;2023-07-13T10:59:47;23.10;99.90
22337;DHT22;14992;50.844;4.418;2023-07-13T11:02:25;23.20;99.90
22337;DHT22;14992;50.844;4.418;2023-07-13T11:04:56;23.40;99.90
22337;DHT22;14992;50.844;4.418;2023-07-13T11:07:27;23.50;99.90
22337;DHT22;14992;50.844;4.418;2023-07-13T11:09:58;23.60;99.90
22337;DHT22;14992;50.844;4.418;2023-07-13T11:12:50;23.50;99.90
22337;DHT22;14992;50.844;4.418;2023-07-13T11:15:42;23.50;99.90
22337;DHT22;14992;50.844;4.418;2023-07-13T11:18:21;23.60;99.90
22337;DHT22;14992;50.844;4.418;2023-07-13T11:20:51;23.80;99.90
22337;DHT22;14992;50.844;4.418;2023-07-13T11:23:29;23.80;99.90
22337;DHT22;14992;50.844;4.418;2023-07-13T11:26:00;24.00;99.90
22337;DHT22;14992;50.844;4.418;2023-07-13T11:28:32;24.00;99.90
22337;DHT22;14992;50.844;4.418;2023-07-13T11:31:17;24.20;99.90
22337;DHT22;14992;50.844;4.418;2023-07-13T11:33:53;24.30;99.90
22337;DHT22;14992;50.844;4.418;2023-07-13T11:36:24;24.30;99.90
22337;DHT22;14992;50.844;4.418;2023-07-13T11:39:01;24.30;99.90
22337;DHT22;14992;50.844;4.418;2023-07-13T11:41:32;24.10;99.90
22337;DHT22;14992;50.844;4.418;2023-07-13T11:44:14;24.00;99.90
22337;DHT22;14992;50.844;4.418;2023-07-13T11:46:47;23.70;99.90
22337;DHT22;14992;50.844;4.418;2023-07-13T11:49:21;23.50;99.90
22337;DHT22;14992;50.844;4.418;2023-07-13T11:51:51;23.40;99.90
22337;DHT22;14992;50.844;4.418;2023-07-13T11:54:28;23.30;99.90
22337;DHT22;14992;50.844;4.418;2023-07-13T11:56:59;23.30;99.90
22337;DHT22;14992;50.844;4.418;2023-07-13T11:59:32;23.30;99.90
22337;DHT22;14992;50.844;4.418;2023-07-13T12:02:02;23.30;99.90
22337;DHT22;14992;50.844;4.418;2023-07-13T12:04:32;23.10;99.90
22337;DHT22;14992;50.844;4.418;2023-07-13T12:07:06;23.10;99.90
22337;DHT22;14992;50.844;4.418;2023-07-13T12:09:36;23.10;99.90
22337;DHT22;14992;50.844;4.418;2023-07-13T12:12:11;23.00;99.90
22337;DHT22;14992;50.844;4.418;2023-07-13T12:14:42;23.10;99.90
22337;DHT22;14992;50.844;4.418;2023-07-13T12:17:18;23.20;99.90
22337;DHT22;14992;50.844;4.418;2023-07-13T12:19:48;23.40;99.90
22337;DHT22;14992;50.844;4.418;2023-07-13T12:22:19;23.50;99.90
22337;DHT22;14992;50.844;4.418;2023-07-13T12:24:48;23.60;99.90
22337;DHT22;14992;50.844;4.418;2023-07-13T12:27:20;23.90;99.90
22337;DHT22;14992;50.844;4.418;2023-07-13T12:29:58;24.00;99.90
22337;DHT22;14992;50.844;4.418;2023-07-13T12:32:28;24.10;99.90
22337;DHT22;14992;50.844;4.418;2023-07-13T12:35:12;23.90;99.90
22337;DHT22;14992;50.844;4.418;2023-07-13T12:37:42;23.10;99.90
22337;DHT22;14992;50.844;4.418;2023-07-13T12:40:14;22.40;99.90
22337;DHT22;14992;50.844;4.418;2023-07-13T12:42:43;22.10;99.90
22337;DHT22;14992;50.844;4.418;2023-07-13T12:45:18;21.60;99.90
22337;DHT22;14992;50.844;4.418;2023-07-13T12:47:49;20.90;99.90
22337;DHT22;14992;50.844;4.418;2023-07-13T12:50:19;20.50;99.90
22337;DHT22;14992;50.844;4.418;2023-07-13T12:52:52;20.40;99.90
22337;DHT22;14992;50.844;4.418;2023-07-13T12:55:22;20.30;99.90
22337;DHT22;14992;50.844;4.418;2023-07-13T12:57:54;20.30;99.90
22337;DHT22;14992;50.844;4.418;2023-07-13T13:00:28;20.30;99.90
22337;DHT22;14992;50.844;4.418;2023-07-13T13:03:05;20.20;99.90
22337;DHT22;14992;50.844;4.418;2023-07-13T13:05:42;20.10;99.90
22337;DHT22;14992;50.844;4.418;2023-07-13T13:08:13;20.00;99.90
22337;DHT22;14992;50.844;4.418;2023-07-13T13:10:42;20.00;99.90
22337;DHT22;14992;50.844;4.418;2023-07-13T13:13:13;20.10;99.90
22337;DHT22;14992;50.844;4.418;2023-07-13T13:15:44;20.30;99.90
22337;DHT22;14992;50.844;4.418;2023-07-13T13:18:18;20.60;99.90
22337;DHT22;14992;50.844;4.418;2023-07-13T13:20:48;21.00;99.90
22337;DHT22;14992;50.844;4.418;2023-07-13T13:23:18;21.30;99.90
22337;DHT22;14992;50.844;4.418;2023-07-13T13:25:50;21.60;99.90
22337;DHT22;14992;50.844;4.418;2023-07-13T13:28:20;21.90;99.90
22337;DHT22;14992;50.844;4.418;2023-07-13T13:30:51;22.10;99.90
22337;DHT22;14992;50.844;4.418;2023-07-13T13:33:21;22.20;99.90
22337;DHT22;14992;50.844;4.418;2023-07-13T13:35:50;22.40;99.90
22337;DHT22;14992;50.844;4.418;2023-07-13T13:38:23;22.70;99.90
22337;DHT22;14992;50.844;4.418;2023-07-13T13:40:53;22.80;99.90
22337;DHT22;14992;50.844;4.418;2023-07-13T13:43:24;23.30;99.90
22337;DHT22;14992;50.844;4.418;2023-07-13T13:45:57;23.60;99.90
22337;DHT22;14992;50.844;4.418;2023-07-13T13:48:32;23.90;99.90
22337;DHT22;14992;50.844;4.418;2023-07-13T13:51:11;24.20;99.90
22337;DHT22;14992;50.844;4.418;2023-07-13T13:53:41;24.30;99.90
22337;DHT22;14992;50.844;4.418;2023-07-13T13:56:11;24.20;99.90
22337;DHT22;14992;50.844;4.418;2023-07-13T13:58:41;24.20;99.90
22337;DHT22;14992;50.844;4.418;2023-07-13T14:01:16;24.40;99.90
22337;DHT22;14992;50.844;4.418;2023-07-13T14:03:46;24.50;99.90
22337;DHT22;14992;50.844;4.418;2023-07-13T14:06:16;24.60;99.90
22337;DHT22;14992;50.844;4.418;2023-07-13T14:08:45;24.60;99.90
22337;DHT22;14992;50.844;4.418;2023-07-13T14:11:16;24.60;99.90
22337;DHT22;14992;50.844;4.418;2023-07-13T14:13:48;24.60;99.90
22337;DHT22;14992;50.844;4.418;2023-07-13T14:16:20;24.50;99.90
22337;DHT22;14992;50.844;4.418;2023-07-13T14:18:51;24.40;99.90
22337;DHT22;14992;50.844;4.418;2023-07-13T14:21:21;24.30;99.90
22337;DHT22;14992;50.844;4.418;2023-07-13T14:23:50;24.00;99.90
22337;DHT22;14992;50.844;4.418;2023-07-13T14:26:20;24.00;99.90
22337;DHT22;14992;50.844;4.418;2023-07-13T14:28:51;24.10;99.90
22337;DHT22;14992;50.844;4.418;2023-07-13T14:31:25;23.90;99.90
22337;DHT22;14992;50.844;4.418;2023-07-13T14:33:57;23.80;99.90
22337;DHT22;14992;50.844;4.418;2023-07-13T14:36:29;23.80;99.90
22337;DHT22;14992;50.844;4.418;2023-07-13T14:39:01;24.10;99.90
22337;DHT22;14992;50.844;4.418;2023-07-13T14:41:34;24.00;99.90
22337;DHT22;14992;50.844;4.418;2023-07-13T14:44:08;24.20;99.90
22337;DHT22;14992;50.844;4.418;2023-07-13T14:46:38;24.30;99.90
22337;DHT22;14992;50.844;4.418;2023-07-13T14:49:15;24.40;99.90
22337;DHT22;14992;50.844;4.418;2023-07-13T14:51:45;24.30;99.90
22337;DHT22;14992;50.844;4.418;2023-07-13T14:54:14;24.70;99.90
22337;DHT22;14992;50.844;4.418;2023-07-13T14:56:43;24.90;99.90
22337;DHT22;14992;50.844;4.418;2023-07-13T14:59:12;25.00;99.90
22337;DHT22;14992;50.844;4.418;2023-07-13T15:01:43;24.90;99.90
22337;DHT22;14992;50.844;4.418;2023-07-13T15:04:12;24.70;99.90
22337;DHT22;14992;50.844;4.418;2023-07-13T15:06:55;24.00;99.90
22337;DHT22;14992;50.844;4.418;2023-07-13T15:09:24;24.10;99.90
22337;DHT22;14992;50.844;4.418;2023-07-13T15:11:54;24.30;99.90
22337;DHT22;14992;50.844;4.418;2023-07-13T15:14:25;24.40;99.90
22337;DHT22;14992;50.844;4.418;2023-07-13T15:17:26;24.50;99.90
22337;DHT22;14992;50.844;4.418;2023-07-13T15:19:56;25.00;99.90
22337;DHT22;14992;50.844;4.418;2023-07-13T15:22:26;25.20;99.90
22337;DHT22;14992;50.844;4.418;2023-07-13T15:24:55;25.10;99.90
22337;DHT22;14992;50.844;4.418;2023-07-13T15:27:29;25.00;99.90
22337;DHT22;14992;50.844;4.418;2023-07-13T15:29:57;24.80;99.90
22337;DHT22;14992;50.844;4.418;2023-07-13T15:32:28;24.80;99.90
22337;DHT22;14992;50.844;4.418;2023-07-13T15:34:57;24.90;99.90
22337;DHT22;14992;50.844;4.418;2023-07-13T15:37:25;25.00;99.90
22337;DHT22;14992;50.844;4.418;2023-07-13T15:39:54;24.90;99.90
22337;DHT22;14992;50.844;4.418;2023-07-13T15:42:23;24.80;99.90
22337;DHT22;14992;50.844;4.418;2023-07-13T15:44:52;24.80;99.60
22337;DHT22;14992;50.844;4.418;2023-07-13T15:47:21;24.80;99.40
22337;DHT22;14992;50.844;4.418;2023-07-13T15:49:51;25.00;99.30
22337;DHT22;14992;50.844;4.418;2023-07-13T15:52:23;25.00;99.80
22337;DHT22;14992;50.844;4.418;2023-07-13T15:54:52;25.20;99.70
22337;DHT22;14992;50.844;4.418;2023-07-13T15:57:21;25.20;98.30